sensor_id;sensor_type;location;lat;lon;timestamp;pressure;altitude;pressure_sealevel;temperature;humidity
49973;BME280;71845;49.798;10.968;2023-12-29T00:00:51;98137.47;;;8.63;72.53
49973;BME280;71845;49.798;10.968;2023-12-29T00:03:23;98129.53;;;8.63;72.28
49973;BME280;71845;49.798;10.968;2023-12-29T00:05:58;98136.97;;;8.72;72.38
49973;BME280;71845;49.798;10.968;2023-12-29T00:08:26;98129.53;;;8.63;72.50
49973;BME280;71845;49.798;10.968;2023-12-29T00:10:55;98122.66;;;8.60;72.16
49973;BME280;71845;49.798;10.968;2023-12-29T00:13:25;98120.59;;;8.65;72.49
49973;BME280;71845;49.798;10.968;2023-12-29T00:15:57;98123.31;;;8.64;72.61
49973;BME280;71845;49.798;10.968;2023-12-29T00:18:28;98130.22;;;8.66;72.17
49973;BME280;71845;49.798;10.968;2023-12-29T00:20:57;98127.59;;;8.66;72.40
49973;BME280;71845;49.798;10.968;2023-12-29T00:23:25;98129.38;;;8.66;72.33
49973;BME280;71845;49.798;10.968;2023-12-29T00:25:53;98131.44;;;8.61;72.34
49973;BME280;71845;49.798;10.968;2023-12-29T00:28:25;98133.63;;;8.68;72.21
49973;BME280;71845;49.798;10.968;2023-12-29T00:31:04;98141.63;;;8.67;72.01
49973;BME280;71845;49.798;10.968;2023-12-29T00:33:34;98139.78;;;8.53;72.55
49973;BME280;71845;49.798;10.968;2023-12-29T00:36:06;98135.34;;;8.69;72.20
49973;BME280;71845;49.798;10.968;2023-12-29T00:38:42;98130.41;;;8.63;72.36
49973;BME280;71845;49.798;10.968;2023-12-29T00:41:09;98124.38;;;8.61;72.07
49973;BME280;71845;49.798;10.968;2023-12-29T00:43:39;98112.41;;;8.70;72.01
49973;BME280;71845;49.798;10.968;2023-12-29T00:46:23;98102.78;;;8.69;71.54
49973;BME280;71845;49.798;10.968;2023-12-29T00:48:51;98102.56;;;8.58;72.17
49973;BME280;71845;49.798;10.968;2023-12-29T00:51:19;98104.06;;;8.62;71.77
49973;BME280;71845;49.798;10.968;2023-12-29T00:53:47;98102.50;;;8.43;72.18
49973;BME280;71845;49.798;10.968;2023-12-29T00:56:17;98101.34;;;8.63;71.96
49973;BME280;71845;49.798;10.968;2023-12-29T00:58:53;98089.41;;;8.72;71.26
49973;BME280;71845;49.798;10.968;2023-12-29T01:01:20;98093.19;;;8.52;71.58
49973;BME280;71845;49.798;10.968;2023-12-29T01:03:50;98103.56;;;8.55;71.76
49973;BME280;71845;49.798;10.968;2023-12-29T01:06:20;98108.22;;;8.66;71.39
49973;BME280;71845;49.798;10.968;2023-12-29T01:08:51;98101.44;;;8.62;71.59
49973;BME280;71845;49.798;10.968;2023-12-29T01:11:19;98095.56;;;8.57;71.80
49973;BME280;71845;49.798;10.968;2023-12-29T01:13:49;98098.28;;;8.55;71.78
49973;BME280;71845;49.798;10.968;2023-12-29T01:16:24;98095.56;;;8.57;71.24
49973;BME280;71845;49.798;10.968;2023-12-29T01:18:56;98098.28;;;8.55;71.89
49973;BME280;71845;49.798;10.968;2023-12-29T01:21:24;98096.50;;;8.55;71.71
49973;BME280;71845;49.798;10.968;2023-12-29T01:24:06;98100.84;;;8.57;72.19
49973;BME280;71845;49.798;10.968;2023-12-29T01:26:36;98101.66;;;8.73;71.80
49973;BME280;71845;49.798;10.968;2023-12-29T01:29:05;98098.81;;;8.46;72.75
49973;BME280;71845;49.798;10.968;2023-12-29T01:31:48;98095.31;;;8.61;72.52
49973;BME280;71845;49.798;10.968;2023-12-29T01:34:18;98096.19;;;8.46;72.96
49973;BME280;71845;49.798;10.968;2023-12-29T01:36:46;98094.38;;;8.46;72.76
49973;BME280;71845;49.798;10.968;2023-12-29T01:39:14;98091.53;;;8.35;73.43
49973;BME280;71845;49.798;10.968;2023-12-29T01:41:41;98089.34;;;8.41;73.32
49973;BME280;71845;49.798;10.968;2023-12-29T01:44:19;98088.69;;;8.38;73.04
49973;BME280;71845;49.798;10.968;2023-12-29T01:47:01;98080.97;;;8.35;73.60
49973;BME280;71845;49.798;10.968;2023-12-29T01:49:34;98076.69;;;8.32;74.26
49973;BME280;71845;49.798;10.968;2023-12-29T01:52:05;98082.47;;;8.39;74.28
49973;BME280;71845;49.798;10.968;2023-12-29T01:54:41;98082.72;;;8.34;74.29
49973;BME280;71845;49.798;10.968;2023-12-29T01:57:09;98081.88;;;8.34;74.50
49973;BME280;71845;49.798;10.968;2023-12-29T01:59:41;98089.03;;;8.32;74.69
49973;BME280;71845;49.798;10.968;2023-12-29T02:02:15;98081.22;;;8.30;74.62
49973;BME280;71845;49.798;10.968;2023-12-29T02:04:46;98071.91;;;8.39;74.57
49973;BME280;71845;49.798;10.968;2023-12-29T02:07:19;98063.41;;;8.18;75.28
49973;BME280;71845;49.798;10.968;2023-12-29T02:09:58;98051.22;;;8.15;74.88
49973;BME280;71845;49.798;10.968;2023-12-29T02:12:29;98054.88;;;8.29;74.39
49973;BME280;71845;49.798;10.968;2023-12-29T02:14:56;98069.34;;;8.37;73.93
49973;BME280;71845;49.798;10.968;2023-12-29T02:17:30;98060.84;;;8.32;73.79
49973;BME280;71845;49.798;10.968;2023-12-29T02:20:06;98063.56;;;8.31;74.08
49973;BME280;71845;49.798;10.968;2023-12-29T02:22:36;98055.69;;;8.15;74.45
49973;BME280;71845;49.798;10.968;2023-12-29T02:25:18;98070.47;;;8.17;74.22
49973;BME280;71845;49.798;10.968;2023-12-29T02:27:51;98067.78;;;8.03;74.80
49973;BME280;71845;49.798;10.968;2023-12-29T02:30:28;98057.88;;;8.06;74.53
49973;BME280;71845;49.798;10.968;2023-12-29T02:33:04;98057.88;;;8.06;74.73
49973;BME280;71845;49.798;10.968;2023-12-29T02:35:33;98056.44;;;8.17;74.55
49973;BME280;71845;49.798;10.968;2023-12-29T02:38:02;98060.81;;;8.02;74.63
49973;BME280;71845;49.798;10.968;2023-12-29T02:40:41;98056.44;;;8.17;74.29
49973;BME280;71845;49.798;10.968;2023-12-29T02:43:11;98049.81;;;8.09;74.49
49973;BME280;71845;49.798;10.968;2023-12-29T02:45:39;98047.59;;;8.02;74.88
49973;BME280;71845;49.798;10.968;2023-12-29T02:48:08;98053.66;;;8.04;74.52
49973;BME280;71845;49.798;10.968;2023-12-29T02:50:38;98038.06;;;7.99;74.97
49973;BME280;71845;49.798;10.968;2023-12-29T02:53:07;98038.75;;;8.03;74.79
49973;BME280;71845;49.798;10.968;2023-12-29T02:55:35;98024.09;;;7.97;74.10
49973;BME280;71845;49.798;10.968;2023-12-29T02:58:17;98026.50;;;8.02;74.54
49973;BME280;71845;49.798;10.968;2023-12-29T03:00:47;98013.00;;;8.06;73.94
49973;BME280;71845;49.798;10.968;2023-12-29T03:03:14;98016.25;;;8.11;73.87
49973;BME280;71845;49.798;10.968;2023-12-29T03:05:44;98016.63;;;7.89;74.80
49973;BME280;71845;49.798;10.968;2023-12-29T03:08:14;98009.72;;;8.03;74.64
49973;BME280;71845;49.798;10.968;2023-12-29T03:10:45;98004.75;;;8.12;74.11
49973;BME280;71845;49.798;10.968;2023-12-29T03:13:29;98016.09;;;7.98;74.71
49973;BME280;71845;49.798;10.968;2023-12-29T03:16:00;98007.91;;;8.03;74.46
49973;BME280;71845;49.798;10.968;2023-12-29T03:18:28;98017.09;;;8.12;74.58
49973;BME280;71845;49.798;10.968;2023-12-29T03:20:57;98008.50;;;8.08;74.47
49973;BME280;71845;49.798;10.968;2023-12-29T03:23:26;98017.03;;;8.14;74.22
49973;BME280;71845;49.798;10.968;2023-12-29T03:25:57;98006.75;;;7.93;74.92
49973;BME280;71845;49.798;10.968;2023-12-29T03:28:45;98007.22;;;8.00;75.00
49973;BME280;71845;49.798;10.968;2023-12-29T03:31:12;98010.81;;;7.98;74.72
49973;BME280;71845;49.798;10.968;2023-12-29T03:33:39;97997.38;;;7.87;74.87
49973;BME280;71845;49.798;10.968;2023-12-29T03:36:09;98008.03;;;8.02;74.74
49973;BME280;71845;49.798;10.968;2023-12-29T03:38:36;98008.94;;;8.01;74.81
49973;BME280;71845;49.798;10.968;2023-12-29T03:41:04;98013.13;;;8.05;74.80
49973;BME280;71845;49.798;10.968;2023-12-29T03:43:35;98018.78;;;8.13;74.26
49973;BME280;71845;49.798;10.968;2023-12-29T03:46:15;97994.84;;;8.16;74.02
49973;BME280;71845;49.798;10.968;2023-12-29T03:48:45;98005.84;;;8.24;73.88
49973;BME280;71845;49.798;10.968;2023-12-29T03:51:21;98000.50;;;8.10;74.18
49973;BME280;71845;49.798;10.968;2023-12-29T03:53:51;98000.94;;;8.18;73.94
49973;BME280;71845;49.798;10.968;2023-12-29T03:56:20;97998.59;;;8.28;73.12
49973;BME280;71845;49.798;10.968;2023-12-29T03:58:55;98008.31;;;8.27;73.67
49973;BME280;71845;49.798;10.968;2023-12-29T04:01:25;98002.69;;;8.18;73.41
49973;BME280;71845;49.798;10.968;2023-12-29T04:03:57;98000.38;;;8.27;73.40
49973;BME280;71845;49.798;10.968;2023-12-29T04:06:32;97995.03;;;8.13;73.34
49973;BME280;71845;49.798;10.968;2023-12-29T04:09:02;97995.47;;;8.21;72.99
49973;BME280;71845;49.798;10.968;2023-12-29T04:11:31;97999.50;;;8.12;73.35
49973;BME280;71845;49.798;10.968;2023-12-29T04:14:06;98002.78;;;8.16;73.03
49973;BME280;71845;49.798;10.968;2023-12-29T04:16:39;98006.59;;;8.26;73.01
49973;BME280;71845;49.798;10.968;2023-12-29T04:19:10;98006.22;;;8.33;72.38
49973;BME280;71845;49.798;10.968;2023-12-29T04:21:37;98013.22;;;8.34;72.58
49973;BME280;71845;49.798;10.968;2023-12-29T04:24:08;98017.53;;;8.20;72.74
49973;BME280;71845;49.798;10.968;2023-12-29T04:26:44;98015.53;;;8.24;72.82
49973;BME280;71845;49.798;10.968;2023-12-29T04:29:31;98013.94;;;8.21;72.61
49973;BME280;71845;49.798;10.968;2023-12-29T04:31:59;98012.38;;;8.33;72.14
49973;BME280;71845;49.798;10.968;2023-12-29T04:34:28;98018.59;;;8.32;72.13
49973;BME280;71845;49.798;10.968;2023-12-29T04:36:57;98008.13;;;8.31;72.07
49973;BME280;71845;49.798;10.968;2023-12-29T04:39:27;98014.59;;;8.25;72.36
49973;BME280;71845;49.798;10.968;2023-12-29T04:41:58;98014.34;;;8.30;72.51
49973;BME280;71845;49.798;10.968;2023-12-29T04:44:46;98017.41;;;8.22;72.30
49973;BME280;71845;49.798;10.968;2023-12-29T04:47:14;98020.47;;;8.30;71.74
49973;BME280;71845;49.798;10.968;2023-12-29T04:49:49;98013.19;;;8.19;71.83
49973;BME280;71845;49.798;10.968;2023-12-29T04:52:19;98020.31;;;8.17;71.19
49973;BME280;71845;49.798;10.968;2023-12-29T04:54:47;98019.31;;;8.20;71.86
49973;BME280;71845;49.798;10.968;2023-12-29T04:57:15;98012.81;;;8.25;70.94
49973;BME280;71845;49.798;10.968;2023-12-29T04:59:47;98008.16;;;8.15;71.50
49973;BME280;71845;49.798;10.968;2023-12-29T05:02:22;98008.59;;;8.07;71.13
49973;BME280;71845;49.798;10.968;2023-12-29T05:04:53;98001.50;;;8.23;70.49
49973;BME280;71845;49.798;10.968;2023-12-29T05:07:24;98005.38;;;8.02;70.43
49973;BME280;71845;49.798;10.968;2023-12-29T05:09:53;98016.25;;;8.11;70.70
49973;BME280;71845;49.798;10.968;2023-12-29T05:12:28;98016.00;;;8.00;70.57
49973;BME280;71845;49.798;10.968;2023-12-29T05:15:00;98004.25;;;8.06;70.28
49973;BME280;71845;49.798;10.968;2023-12-29T05:17:27;98012.69;;;8.12;69.81
49973;BME280;71845;49.798;10.968;2023-12-29T05:19:56;98011.41;;;7.88;69.76
49973;BME280;71845;49.798;10.968;2023-12-29T05:22:32;98005.88;;;7.92;69.66
49973;BME280;71845;49.798;10.968;2023-12-29T05:25:03;98013.63;;;7.95;69.64
49973;BME280;71845;49.798;10.968;2023-12-29T05:27:33;98016.38;;;7.94;69.41
49973;BME280;71845;49.798;10.968;2023-12-29T05:30:20;98017.03;;;7.97;69.32
49973;BME280;71845;49.798;10.968;2023-12-29T05:32:50;97998.31;;;7.86;69.61
49973;BME280;71845;49.798;10.968;2023-12-29T05:35:19;97996.25;;;7.75;69.71
49973;BME280;71845;49.798;10.968;2023-12-29T05:37:49;98003.31;;;7.91;69.37
49973;BME280;71845;49.798;10.968;2023-12-29T05:40:19;98007.50;;;7.79;69.31
49973;BME280;71845;49.798;10.968;2023-12-29T05:42:47;98008.03;;;7.69;69.65
49973;BME280;71845;49.798;10.968;2023-12-29T05:45:19;97995.44;;;7.75;69.23
49973;BME280;71845;49.798;10.968;2023-12-29T05:47:55;98010.16;;;7.79;69.06
49973;BME280;71845;49.798;10.968;2023-12-29T05:50:25;98010.91;;;7.81;69.13
49973;BME280;71845;49.798;10.968;2023-12-29T05:52:54;98018.25;;;7.76;69.48
49973;BME280;71845;49.798;10.968;2023-12-29T05:55:24;98013.13;;;7.57;69.81
49973;BME280;71845;49.798;10.968;2023-12-29T05:57:54;98015.69;;;7.58;69.75
49973;BME280;71845;49.798;10.968;2023-12-29T06:00:36;98000.78;;;7.57;69.66
49973;BME280;71845;49.798;10.968;2023-12-29T06:03:05;98004.63;;;7.51;70.11
49973;BME280;71845;49.798;10.968;2023-12-29T06:05:36;98000.19;;;7.52;69.64
49973;BME280;71845;49.798;10.968;2023-12-29T06:08:06;98011.41;;;7.39;70.14
49973;BME280;71845;49.798;10.968;2023-12-29T06:10:36;98004.03;;;7.62;69.42
49973;BME280;71845;49.798;10.968;2023-12-29T06:13:03;98009.19;;;7.48;69.97
49973;BME280;71845;49.798;10.968;2023-12-29T06:15:42;98009.97;;;7.50;69.86
49973;BME280;71845;49.798;10.968;2023-12-29T06:18:13;98004.03;;;7.46;70.11
49973;BME280;71845;49.798;10.968;2023-12-29T06:20:41;98003.22;;;7.28;70.35
49973;BME280;71845;49.798;10.968;2023-12-29T06:23:10;97995.81;;;7.19;70.79
49973;BME280;71845;49.798;10.968;2023-12-29T06:25:40;97999.53;;;7.15;70.88
49973;BME280;71845;49.798;10.968;2023-12-29T06:28:07;97993.06;;;7.04;71.33
49973;BME280;71845;49.798;10.968;2023-12-29T06:30:41;98006.50;;;7.16;71.10
49973;BME280;71845;49.798;10.968;2023-12-29T06:33:09;98003.44;;;7.07;71.67
49973;BME280;71845;49.798;10.968;2023-12-29T06:35:36;98004.28;;;7.08;71.62
49973;BME280;71845;49.798;10.968;2023-12-29T06:38:04;98006.78;;;7.11;71.89
49973;BME280;71845;49.798;10.968;2023-12-29T06:40:34;98000.69;;;6.93;72.24
49973;BME280;71845;49.798;10.968;2023-12-29T06:43:06;98002.94;;;7.17;71.64
49973;BME280;71845;49.798;10.968;2023-12-29T06:45:42;98008.25;;;6.99;72.78
49973;BME280;71845;49.798;10.968;2023-12-29T06:48:13;98003.28;;;7.10;72.28
49973;BME280;71845;49.798;10.968;2023-12-29T06:50:43;98019.44;;;7.20;72.13
49973;BME280;71845;49.798;10.968;2023-12-29T06:53:13;98021.50;;;7.31;72.00
49973;BME280;71845;49.798;10.968;2023-12-29T06:55:44;98013.53;;;7.33;71.79
49973;BME280;71845;49.798;10.968;2023-12-29T06:58:12;98012.66;;;7.32;71.86
49973;BME280;71845;49.798;10.968;2023-12-29T07:00:43;98020.84;;;7.28;71.98
49973;BME280;71845;49.798;10.968;2023-12-29T07:03:18;98014.28;;;7.19;72.09
49973;BME280;71845;49.798;10.968;2023-12-29T07:05:49;98004.03;;;7.12;71.86
49973;BME280;71845;49.798;10.968;2023-12-29T07:08:18;98017.78;;;7.02;72.43
49973;BME280;71845;49.798;10.968;2023-12-29T07:10:46;98022.53;;;6.95;72.67
49973;BME280;71845;49.798;10.968;2023-12-29T07:13:17;98017.75;;;6.86;72.83
49973;BME280;71845;49.798;10.968;2023-12-29T07:15:55;98024.47;;;6.91;72.63
49973;BME280;71845;49.798;10.968;2023-12-29T07:18:24;98022.91;;;6.87;72.75
49973;BME280;71845;49.798;10.968;2023-12-29T07:20:59;98028.19;;;6.87;73.51
49973;BME280;71845;49.798;10.968;2023-12-29T07:23:30;98015.63;;;6.92;73.78
49973;BME280;71845;49.798;10.968;2023-12-29T07:25:59;98023.91;;;6.84;74.22
49973;BME280;71845;49.798;10.968;2023-12-29T07:28:28;98032.72;;;7.01;74.01
49973;BME280;71845;49.798;10.968;2023-12-29T07:31:01;98042.75;;;7.12;74.00
49973;BME280;71845;49.798;10.968;2023-12-29T07:33:31;98044.06;;;7.03;73.93
49973;BME280;71845;49.798;10.968;2023-12-29T07:35:58;98040.69;;;7.17;73.52
49973;BME280;71845;49.798;10.968;2023-12-29T07:38:30;98037.50;;;7.28;73.58
49973;BME280;71845;49.798;10.968;2023-12-29T07:41:01;98056.81;;;7.29;73.47
49973;BME280;71845;49.798;10.968;2023-12-29T07:43:37;98061.91;;;7.32;73.52
49973;BME280;71845;49.798;10.968;2023-12-29T07:46:09;98057.56;;;7.31;73.43
49973;BME280;71845;49.798;10.968;2023-12-29T07:48:44;98071.28;;;7.37;73.10
49973;BME280;71845;49.798;10.968;2023-12-29T07:51:12;98068.84;;;7.50;72.66
49973;BME280;71845;49.798;10.968;2023-12-29T07:53:43;98056.31;;;7.38;73.28
49973;BME280;71845;49.798;10.968;2023-12-29T07:56:13;98075.06;;;7.49;72.85
49973;BME280;71845;49.798;10.968;2023-12-29T07:58:41;98072.59;;;7.46;73.03
49973;BME280;71845;49.798;10.968;2023-12-29T08:01:16;98069.66;;;7.68;72.66
49973;BME280;71845;49.798;10.968;2023-12-29T08:03:46;98055.47;;;7.53;72.69
49973;BME280;71845;49.798;10.968;2023-12-29T08:06:15;98062.03;;;7.62;72.58
49973;BME280;71845;49.798;10.968;2023-12-29T08:08:56;98068.09;;;7.64;72.76
49973;BME280;71845;49.798;10.968;2023-12-29T08:11:34;98067.41;;;7.77;72.41
49973;BME280;71845;49.798;10.968;2023-12-29T08:14:03;98064.78;;;7.77;72.19
49973;BME280;71845;49.798;10.968;2023-12-29T08:16:43;98067.50;;;7.75;72.58
49973;BME280;71845;49.798;10.968;2023-12-29T08:19:11;98076.69;;;7.84;72.33
49973;BME280;71845;49.798;10.968;2023-12-29T08:21:43;98074.31;;;7.79;72.38
49973;BME280;71845;49.798;10.968;2023-12-29T08:24:15;98073.72;;;7.90;71.88
49973;BME280;71845;49.798;10.968;2023-12-29T08:26:47;98090.47;;;7.73;73.03
49973;BME280;71845;49.798;10.968;2023-12-29T08:29:15;98084.13;;;7.93;72.42
49973;BME280;71845;49.798;10.968;2023-12-29T08:31:58;98076.63;;;7.86;72.87
49973;BME280;71845;49.798;10.968;2023-12-29T08:34:28;98078.44;;;7.85;72.98
49973;BME280;71845;49.798;10.968;2023-12-29T08:36:59;98081.31;;;7.96;72.48
49973;BME280;71845;49.798;10.968;2023-12-29T08:39:29;98083.94;;;7.96;72.62
49973;BME280;71845;49.798;10.968;2023-12-29T08:41:59;98085.63;;;7.97;72.47
49973;BME280;71845;49.798;10.968;2023-12-29T08:44:29;98086.22;;;7.87;72.63
49973;BME280;71845;49.798;10.968;2023-12-29T08:47:01;98091.84;;;7.96;72.59
49973;BME280;71845;49.798;10.968;2023-12-29T08:49:36;98096.91;;;7.85;73.16
49973;BME280;71845;49.798;10.968;2023-12-29T08:52:05;98096.03;;;8.01;72.64
49973;BME280;71845;49.798;10.968;2023-12-29T08:54:40;98096.09;;;8.15;72.20
49973;BME280;71845;49.798;10.968;2023-12-29T08:57:10;98095.78;;;8.05;72.35
49973;BME280;71845;49.798;10.968;2023-12-29T08:59:40;98102.41;;;7.96;72.91
49973;BME280;71845;49.798;10.968;2023-12-29T09:02:25;98097.75;;;8.18;72.35
49973;BME280;71845;49.798;10.968;2023-12-29T09:04:53;98101.38;;;8.15;71.89
49973;BME280;71845;49.798;10.968;2023-12-29T09:07:21;98103.03;;;8.18;71.33
49973;BME280;71845;49.798;10.968;2023-12-29T09:09:52;98099.19;;;8.07;71.06
49973;BME280;71845;49.798;10.968;2023-12-29T09:12:29;98095.69;;;8.23;70.08
49973;BME280;71845;49.798;10.968;2023-12-29T09:15:00;98103.59;;;8.23;70.35
49973;BME280;71845;49.798;10.968;2023-12-29T09:17:38;98100.19;;;8.21;70.30
49973;BME280;71845;49.798;10.968;2023-12-29T09:20:10;98110.91;;;8.34;69.89
49973;BME280;71845;49.798;10.968;2023-12-29T09:22:42;98106.31;;;8.37;70.10
49973;BME280;71845;49.798;10.968;2023-12-29T09:25:10;98115.88;;;8.40;69.81
49973;BME280;71845;49.798;10.968;2023-12-29T09:27:39;98115.31;;;8.49;70.01
49973;BME280;71845;49.798;10.968;2023-12-29T09:30:16;98106.81;;;8.44;69.26
49973;BME280;71845;49.798;10.968;2023-12-29T09:32:56;98108.78;;;8.40;69.45
49973;BME280;71845;49.798;10.968;2023-12-29T09:35:25;98094.91;;;8.37;69.19
49973;BME280;71845;49.798;10.968;2023-12-29T09:37:57;98105.88;;;8.61;68.33
49973;BME280;71845;49.798;10.968;2023-12-29T09:40:26;98112.41;;;8.70;68.47
49973;BME280;71845;49.798;10.968;2023-12-29T09:42:57;98100.22;;;8.67;68.09
49973;BME280;71845;49.798;10.968;2023-12-29T09:45:26;98091.94;;;8.74;67.96
49973;BME280;71845;49.798;10.968;2023-12-29T09:48:11;98080.53;;;8.73;66.86
49973;BME280;71845;49.798;10.968;2023-12-29T09:50:43;98090.41;;;8.69;66.94
49973;BME280;71845;49.798;10.968;2023-12-29T09:53:11;98071.25;;;8.66;66.88
49973;BME280;71845;49.798;10.968;2023-12-29T09:55:41;98088.03;;;8.81;67.19
49973;BME280;71845;49.798;10.968;2023-12-29T09:58:12;98091.72;;;9.81;64.00
49973;BME280;71845;49.798;10.968;2023-12-29T10:00:42;98087.16;;;14.33;62.86
49973;BME280;71845;49.798;10.968;2023-12-29T10:03:18;98073.44;;;11.40;60.66
49973;BME280;71845;49.798;10.968;2023-12-29T10:06:06;98070.00;;;10.18;62.79
49973;BME280;71845;49.798;10.968;2023-12-29T10:08:44;98072.16;;;9.84;62.91
49973;BME280;71845;49.798;10.968;2023-12-29T10:11:11;98064.16;;;9.42;63.79
49973;BME280;71845;49.798;10.968;2023-12-29T10:13:49;98063.56;;;9.37;63.91
49973;BME280;71845;49.798;10.968;2023-12-29T10:16:30;98056.78;;;9.33;64.36
49973;BME280;71845;49.798;10.968;2023-12-29T10:19:11;98066.88;;;9.26;64.05
49973;BME280;71845;49.798;10.968;2023-12-29T10:21:47;98049.78;;;9.32;64.02
49973;BME280;71845;49.798;10.968;2023-12-29T10:24:21;98041.91;;;9.16;64.38
49973;BME280;71845;49.798;10.968;2023-12-29T10:26:49;98043.72;;;9.15;64.08
49973;BME280;71845;49.798;10.968;2023-12-29T10:29:20;98040.69;;;9.07;63.43
49973;BME280;71845;49.798;10.968;2023-12-29T10:31:47;98038.34;;;9.17;63.84
49973;BME280;71845;49.798;10.968;2023-12-29T10:34:25;98033.16;;;9.15;64.19
49973;BME280;71845;49.798;10.968;2023-12-29T10:36:57;98042.13;;;9.13;63.80
49973;BME280;71845;49.798;10.968;2023-12-29T10:39:31;98030.22;;;9.20;63.96
49973;BME280;71845;49.798;10.968;2023-12-29T10:42:05;98027.88;;;9.15;64.02
49973;BME280;71845;49.798;10.968;2023-12-29T10:44:38;98028.69;;;9.16;63.68
49973;BME280;71845;49.798;10.968;2023-12-29T10:47:09;98030.69;;;9.41;63.58
49973;BME280;71845;49.798;10.968;2023-12-29T10:49:59;98031.06;;;9.49;63.15
49973;BME280;71845;49.798;10.968;2023-12-29T10:52:31;98026.25;;;9.56;63.02
49973;BME280;71845;49.798;10.968;2023-12-29T10:55:06;98024.81;;;9.65;63.54
49973;BME280;71845;49.798;10.968;2023-12-29T10:57:35;98016.41;;;9.58;63.54
49973;BME280;71845;49.798;10.968;2023-12-29T11:00:04;98012.06;;;9.72;63.26
49973;BME280;71845;49.798;10.968;2023-12-29T11:02:35;98019.13;;;9.71;63.28
49973;BME280;71845;49.798;10.968;2023-12-29T11:05:25;98006.47;;;9.76;63.63
49973;BME280;71845;49.798;10.968;2023-12-29T11:07:54;98003.34;;;9.84;63.52
49973;BME280;71845;49.798;10.968;2023-12-29T11:10:25;97998.81;;;9.72;63.82
49973;BME280;71845;49.798;10.968;2023-12-29T11:12:55;97999.91;;;9.82;63.81
49973;BME280;71845;49.798;10.968;2023-12-29T11:15:27;98002.00;;;9.77;64.20
49973;BME280;71845;49.798;10.968;2023-12-29T11:17:58;98000.69;;;9.84;64.03
49973;BME280;71845;49.798;10.968;2023-12-29T11:20:43;98001.84;;;9.65;64.29
49973;BME280;71845;49.798;10.968;2023-12-29T11:23:12;98002.13;;;9.75;64.61
49973;BME280;71845;49.798;10.968;2023-12-29T11:25:44;97989.56;;;9.64;65.10
49973;BME280;71845;49.798;10.968;2023-12-29T11:28:13;97993.31;;;9.75;65.08
49973;BME280;71845;49.798;10.968;2023-12-29T11:30:43;97987.63;;;9.81;65.00
49973;BME280;71845;49.798;10.968;2023-12-29T11:33:23;97986.41;;;9.72;64.75
49973;BME280;71845;49.798;10.968;2023-12-29T11:36:04;97987.28;;;9.73;65.07
49973;BME280;71845;49.798;10.968;2023-12-29T11:38:44;97975.75;;;9.74;64.97
49973;BME280;71845;49.798;10.968;2023-12-29T11:41:18;97994.31;;;9.87;64.70
49973;BME280;71845;49.798;10.968;2023-12-29T11:43:59;97975.22;;;9.96;64.69
49973;BME280;71845;49.798;10.968;2023-12-29T11:46:38;97972.59;;;10.09;64.81
49973;BME280;71845;49.798;10.968;2023-12-29T11:49:10;97968.28;;;10.21;64.27
49973;BME280;71845;49.798;10.968;2023-12-29T11:51:46;97965.63;;;10.21;63.94
49973;BME280;71845;49.798;10.968;2023-12-29T11:54:28;97974.25;;;10.24;64.01
49973;BME280;71845;49.798;10.968;2023-12-29T11:57:10;97968.59;;;10.16;63.23
49973;BME280;71845;49.798;10.968;2023-12-29T11:59:47;97976.06;;;10.37;63.16
49973;BME280;71845;49.798;10.968;2023-12-29T12:02:30;97965.56;;;10.35;62.69
49973;BME280;71845;49.798;10.968;2023-12-29T12:04:59;97972.84;;;10.19;62.08
49973;BME280;71845;49.798;10.968;2023-12-29T12:08:00;97962.47;;;10.29;62.14
49973;BME280;71845;49.798;10.968;2023-12-29T12:10:31;97951.50;;;10.07;61.80
49973;BME280;71845;49.798;10.968;2023-12-29T12:13:06;97960.09;;;10.11;61.82
49973;BME280;71845;49.798;10.968;2023-12-29T12:15:39;97958.94;;;10.15;62.01
49973;BME280;71845;49.798;10.968;2023-12-29T12:18:10;97945.63;;;10.17;62.06
49973;BME280;71845;49.798;10.968;2023-12-29T12:20:39;97949.06;;;10.04;61.63
49973;BME280;71845;49.798;10.968;2023-12-29T12:23:17;97941.88;;;10.06;61.85
49973;BME280;71845;49.798;10.968;2023-12-29T12:25:50;97925.53;;;10.00;61.77
49973;BME280;71845;49.798;10.968;2023-12-29T12:28:23;97937.03;;;10.13;61.83
49973;BME280;71845;49.798;10.968;2023-12-29T12:30:52;97935.13;;;10.15;62.04
49973;BME280;71845;49.798;10.968;2023-12-29T12:33:20;97925.53;;;10.00;61.58
49973;BME280;71845;49.798;10.968;2023-12-29T12:35:59;97939.34;;;10.05;61.77
49973;BME280;71845;49.798;10.968;2023-12-29T12:38:53;97940.00;;;10.08;61.60
49973;BME280;71845;49.798;10.968;2023-12-29T12:41:26;97937.44;;;10.60;60.26
49973;BME280;71845;49.798;10.968;2023-12-29T12:44:01;97941.22;;;10.30;60.17
49973;BME280;71845;49.798;10.968;2023-12-29T12:46:34;97947.31;;;10.18;60.63
49973;BME280;71845;49.798;10.968;2023-12-29T12:49:10;97944.38;;;10.22;60.67
49973;BME280;71845;49.798;10.968;2023-12-29T12:51:42;97943.00;;;10.30;60.79
49973;BME280;71845;49.798;10.968;2023-12-29T12:54:26;97928.34;;;10.11;61.09
49973;BME280;71845;49.798;10.968;2023-12-29T12:56:55;97933.34;;;10.16;61.27
49973;BME280;71845;49.798;10.968;2023-12-29T12:59:27;97936.06;;;10.14;61.01
49973;BME280;71845;49.798;10.968;2023-12-29T13:01:57;97954.31;;;10.32;60.72
49973;BME280;71845;49.798;10.968;2023-12-29T13:04:33;97944.56;;;10.19;60.39
49973;BME280;71845;49.798;10.968;2023-12-29T13:07:03;97937.59;;;10.18;60.69
49973;BME280;71845;49.798;10.968;2023-12-29T13:09:36;97933.75;;;10.09;60.24
49973;BME280;71845;49.798;10.968;2023-12-29T13:12:10;97911.28;;;10.15;59.90
49973;BME280;71845;49.798;10.968;2023-12-29T13:14:42;97937.25;;;10.23;60.04
49973;BME280;71845;49.798;10.968;2023-12-29T13:17:14;97928.56;;;10.21;60.49
49973;BME280;71845;49.798;10.968;2023-12-29T13:19:44;97927.00;;;10.18;60.02
49973;BME280;71845;49.798;10.968;2023-12-29T13:22:11;97934.44;;;10.26;60.32
49973;BME280;71845;49.798;10.968;2023-12-29T13:24:49;97939.03;;;10.09;59.94
49973;BME280;71845;49.798;10.968;2023-12-29T13:27:22;97938.31;;;10.20;59.96